Time;durP1;ratioP1;P1;durP2;ratioP2;P2;SDS_P1;SDS_P2;PMS_P1;PMS_P2;Temp;Humidity;BMP_temperature;BMP_pressure;BME280_temperature;BME280_humidity;BME280_pressure;Samples;Min_cycle;Max_cycle;Signal;HPM_P1;HPM_P2
2021/10/08 00:04:31;;;;;;;23.00;13.80;;;;;;;5.00;75.55;101341.10;229343;1192;140515;-69
2021/10/08 00:09:36;;;;;;;18.60;11.30;;;;;;;4.86;75.46;101341.45;229675;1192;138747;-69
2021/10/08 00:14:40;;;;;;;15.80;11.00;;;;;;;4.80;75.68;101343.77;230140;1192;138830;-70
2021/10/08 00:19:45;;;;;;;28.70;13.30;;;;;;;4.80;75.97;101344.39;229662;1192;139397;-69
2021/10/08 00:24:51;;;;;;;23.70;13.10;;;;;;;4.81;76.00;101345.78;229367;1192;139573;-69
2021/10/08 00:29:55;;;;;;;20.10;11.30;;;;;;;4.78;75.90;101346.42;230239;1192;139746;-68
2021/10/08 00:35:01;;;;;;;21.90;13.10;;;;;;;4.74;76.15;101350.86;229287;1192;140393;-67
2021/10/08 00:40:07;;;;;;;18.50;11.90;;;;;;;4.70;76.10;101351.36;230084;1192;140803;-69
2021/10/08 00:45:10;;;;;;;23.60;12.30;;;;;;;4.72;76.14;101359.83;229826;1192;140389;-69
2021/10/08 00:50:14;;;;;;;21.20;12.00;;;;;;;4.71;76.11;101365.73;229420;1192;141427;-68
2021/10/08 00:55:19;;;;;;;16.90;11.60;;;;;;;4.70;75.98;101364.67;230351;1192;140731;-67
2021/10/08 01:00:23;;;;;;;17.60;10.40;;;;;;;4.64;75.90;101363.27;229702;1192;141301;-67
2021/10/08 01:05:28;;;;;;;17.70;10.90;;;;;;;4.56;76.08;101364.14;230429;1190;139905;-69
2021/10/08 01:10:33;;;;;;;15.70;11.20;;;;;;;4.56;76.15;101369.45;230266;1191;140396;-67
2021/10/08 01:15:38;;;;;;;25.20;10.70;;;;;;;4.57;76.12;101372.69;231009;1192;140315;-69
2021/10/08 01:20:42;;;;;;;26.10;13.70;;;;;;;4.54;76.14;101376.34;230649;1191;141202;-67
2021/10/08 01:25:50;;;;;;;23.20;12.40;;;;;;;4.52;75.90;101380.22;231568;1192;139669;-67
2021/10/08 01:30:55;;;;;;;15.60;10.70;;;;;;;4.47;75.79;101381.96;230647;1191;139817;-66
2021/10/08 01:36:00;;;;;;;21.80;11.10;;;;;;;4.47;75.76;101381.44;231230;1192;140642;-67
2021/10/08 01:41:05;;;;;;;20.40;11.60;;;;;;;4.44;75.65;101386.36;229298;1192;140432;-66
2021/10/08 01:46:09;;;;;;;34.60;12.80;;;;;;;4.41;75.86;101386.83;228956;1192;139995;-67
2021/10/08 01:51:15;;;;;;;20.50;13.00;;;;;;;4.32;75.83;101382.87;230016;1192;139640;-67
2021/10/08 01:56:19;;;;;;;21.40;10.40;;;;;;;4.25;75.95;101383.86;230337;1192;139382;-67
2021/10/08 02:01:24;;;;;;;29.20;16.00;;;;;;;4.19;75.61;101381.41;229735;1192;139363;-67
2021/10/08 02:06:29;;;;;;;24.70;11.80;;;;;;;4.11;75.74;101380.48;229935;1192;140235;-67
2021/10/08 02:11:34;;;;;;;27.60;13.80;;;;;;;4.03;75.87;101381.79;229774;1183;139689;-67
2021/10/08 02:16:39;;;;;;;19.40;11.70;;;;;;;3.96;76.12;101384.11;229830;1192;138973;-66
2021/10/08 02:21:43;;;;;;;21.30;11.40;;;;;;;3.88;76.01;101386.45;229745;1192;140753;-67
2021/10/08 02:26:47;;;;;;;22.60;12.60;;;;;;;3.83;76.03;101393.65;229543;1192;140934;-68
2021/10/08 02:31:50;;;;;;;15.60;10.70;;;;;;;3.79;76.13;101396.17;229574;1192;140575;-67
2021/10/08 02:36:54;;;;;;;20.90;14.00;;;;;;;3.69;76.13;101393.55;230088;1192;221035;-67
2021/10/08 02:42:00;;;;;;;28.30;11.20;;;;;;;3.60;76.28;101396.40;230057;1192;142229;-67
2021/10/08 02:47:05;;;;;;;19.20;12.60;;;;;;;3.55;76.52;101406.42;229962;1192;140060;-67
2021/10/08 02:52:11;;;;;;;21.50;11.60;;;;;;;3.55;76.38;101411.50;229715;1192;140131;-68
2021/10/08 02:57:39;;;;;;;14.70;10.00;;;;;;;3.52;76.45;101416.17;229554;1192;141107;-68
2021/10/08 03:02:43;;;;;;;15.10;11.60;;;;;;;3.48;76.56;101418.00;229685;1192;140975;-67
2021/10/08 03:07:49;;;;;;;17.70;11.10;;;;;;;3.44;76.77;101417.66;230244;1192;140325;-68
2021/10/08 03:12:53;;;;;;;20.50;10.90;;;;;;;3.43;76.58;101420.61;229977;1192;140198;-67
2021/10/08 03:17:58;;;;;;;15.70;10.20;;;;;;;3.38;76.58;101418.21;230531;1192;141059;-66
2021/10/08 03:23:03;;;;;;;18.60;13.80;;;;;;;3.32;76.61;101421.96;231236;1191;140456;-69
2021/10/08 03:28:09;;;;;;;15.10;10.20;;;;;;;3.29;76.69;101425.80;230844;1192;140397;-69
2021/10/08 03:33:14;;;;;;;22.80;10.90;;;;;;;3.29;76.59;101429.20;230621;1192;140475;-67
2021/10/08 03:38:20;;;;;;;15.70;10.80;;;;;;;3.27;76.90;101427.60;230911;1192;140881;-67
2021/10/08 03:43:26;;;;;;;21.40;10.50;;;;;;;3.24;76.77;101428.73;229662;1192;140398;-68
2021/10/08 03:48:48;;;;;;;16.80;10.20;;;;;;;3.19;76.89;101437.48;229148;1192;139814;-66
2021/10/08 03:53:52;;;;;;;21.60;11.40;;;;;;;3.14;76.73;101441.47;229551;1192;141454;-66
2021/10/08 03:58:58;;;;;;;15.10;9.10;;;;;;;3.05;76.58;101440.77;229356;1192;139687;-67
2021/10/08 04:04:06;;;;;;;16.50;10.90;;;;;;;2.99;76.93;101446.95;230016;1192;139293;-67
2021/10/08 04:09:10;;;;;;;24.20;11.50;;;;;;;2.92;77.01;101453.34;230136;1192;139404;-67
2021/10/08 04:14:16;;;;;;;17.40;10.70;;;;;;;2.85;77.13;101448.94;229476;1192;139878;-67
2021/10/08 04:19:21;;;;;;;16.70;9.50;;;;;;;2.82;77.00;101445.67;229614;1192;140019;-68
2021/10/08 04:24:25;;;;;;;18.30;10.00;;;;;;;2.77;76.75;101443.55;229482;1192;141166;-67
2021/10/08 04:29:30;;;;;;;18.50;10.20;;;;;;;2.72;77.30;101444.59;229945;1192;139887;-65
2021/10/08 04:34:35;;;;;;;15.40;9.90;;;;;;;2.70;77.55;101446.16;229654;1192;139142;-66
2021/10/08 04:39:40;;;;;;;17.50;9.40;;;;;;;2.71;77.51;101450.13;229897;1183;139677;-66
2021/10/08 04:44:45;;;;;;;14.60;8.80;;;;;;;2.79;77.69;101456.73;229765;1191;140414;-68
2021/10/08 04:49:50;;;;;;;17.80;10.60;;;;;;;2.83;77.47;101457.40;229839;1190;139220;-66
2021/10/08 04:54:54;;;;;;;17.00;8.80;;;;;;;2.85;77.73;101457.57;229673;1192;139252;-67
2021/10/08 04:59:58;;;;;;;20.30;8.90;;;;;;;2.82;77.57;101460.09;230545;1191;139162;-66
2021/10/08 05:05:03;;;;;;;15.90;8.70;;;;;;;2.80;77.57;101459.06;230360;1192;139033;-66
2021/10/08 05:10:09;;;;;;;31.40;10.80;;;;;;;2.84;77.31;101461.49;229799;1190;139982;-65
2021/10/08 05:15:13;;;;;;;20.20;11.50;;;;;;;2.88;77.50;101461.80;231227;1191;140014;-66
2021/10/08 05:20:18;;;;;;;21.70;12.00;;;;;;;2.91;77.50;101472.94;231248;1191;140002;-69
2021/10/08 05:25:23;;;;;;;24.80;10.10;;;;;;;2.96;77.75;101476.48;231343;1184;138993;-66
2021/10/08 05:30:27;;;;;;;20.70;9.70;;;;;;;3.03;77.82;101477.11;230918;1191;139178;-66
2021/10/08 05:35:31;;;;;;;17.50;9.20;;;;;;;3.16;77.43;101485.48;231358;1192;140733;-66
2021/10/08 05:40:37;;;;;;;15.20;8.10;;;;;;;3.31;77.41;101493.43;230306;1192;141750;-65
2021/10/08 05:45:42;;;;;;;17.00;9.80;;;;;;;3.42;77.53;101503.41;230129;1191;138942;-65
2021/10/08 05:50:48;;;;;;;29.90;10.10;;;;;;;3.58;77.37;101505.08;230045;1191;139199;-65
2021/10/08 05:55:54;;;;;;;15.20;8.90;;;;;;;3.68;77.31;101509.77;229973;1192;138786;-66
2021/10/08 06:01:00;;;;;;;25.50;10.80;;;;;;;3.82;77.10;101515.61;229773;1192;140569;-65
2021/10/08 06:06:06;;;;;;;19.30;8.00;;;;;;;3.96;76.85;101518.84;229816;1192;208346;-64
2021/10/08 06:11:11;;;;;;;18.30;9.10;;;;;;;4.06;76.96;101519.79;229256;1192;139335;-64
2021/10/08 06:16:16;;;;;;;29.20;11.90;;;;;;;4.13;76.87;101524.20;230000;1192;138843;-65
2021/10/08 06:21:20;;;;;;;15.20;9.30;;;;;;;4.23;76.55;101528.19;229594;1190;139073;-65
2021/10/08 06:26:25;;;;;;;18.70;9.20;;;;;;;4.33;76.54;101537.46;229817;1190;138968;-65
2021/10/08 06:31:30;;;;;;;17.40;7.90;;;;;;;4.54;76.35;101544.86;230460;1191;139895;-67
2021/10/08 06:36:36;;;;;;;23.20;10.40;;;;;;;4.73;75.99;101550.48;230726;1192;139036;-66
2021/10/08 06:41:40;;;;;;;15.10;9.10;;;;;;;4.95;75.63;101553.33;230044;1191;138700;-67
2021/10/08 06:46:45;;;;;;;17.50;8.60;;;;;;;5.20;75.66;101558.05;230196;1191;160129;-64
2021/10/08 06:51:50;;;;;;;15.00;7.80;;;;;;;5.52;75.27;101563.08;230147;1192;139702;-65
2021/10/08 06:56:55;;;;;;;19.50;7.60;;;;;;;5.77;75.05;101570.84;229079;1192;139688;-65
2021/10/08 07:01:59;;;;;;;13.90;7.50;;;;;;;6.03;74.40;101572.96;230324;1191;142332;-66
2021/10/08 07:07:03;;;;;;;27.80;11.60;;;;;;;6.26;74.71;101583.59;229977;1192;139799;-66
2021/10/08 07:12:08;;;;;;;15.30;8.10;;;;;;;6.48;74.36;101582.37;229246;1192;140139;-66
2021/10/08 07:17:12;;;;;;;21.50;10.20;;;;;;;6.60;73.81;101586.89;231112;1192;140224;-66
2021/10/08 07:22:17;;;;;;;13.00;7.60;;;;;;;6.71;73.20;101590.39;231376;1192;139721;-68
2021/10/08 07:27:21;;;;;;;13.90;7.20;;;;;;;6.88;72.95;101594.84;231230;1191;139522;-67
2021/10/08 07:32:25;;;;;;;21.10;7.10;;;;;;;7.08;72.65;101602.54;231035;1191;139772;-67
2021/10/08 07:37:29;;;;;;;39.40;11.90;;;;;;;7.23;72.81;101608.66;230544;1192;138723;-67
2021/10/08 07:42:35;;;;;;;15.00;8.30;;;;;;;7.38;72.32;101609.06;228851;1192;140293;-67
2021/10/08 07:47:42;;;;;;;12.70;7.90;;;;;;;7.54;72.01;101608.95;230924;1192;139114;-67
2021/10/08 07:52:46;;;;;;;15.40;7.90;;;;;;;7.71;71.64;101614.67;229884;1192;139587;-65
2021/10/08 07:57:50;;;;;;;18.30;8.10;;;;;;;7.90;71.56;101612.16;229657;1192;139556;-65
2021/10/08 08:02:55;;;;;;;12.80;6.50;;;;;;;8.08;71.17;101615.04;229203;1192;138900;-65
2021/10/08 08:08:02;;;;;;;12.70;5.70;;;;;;;8.27;70.34;101617.42;229926;1192;139786;-67
2021/10/08 08:13:13;;;;;;;8.20;6.70;;;;;;;8.46;70.23;101617.89;228592;1192;140942;-66
2021/10/08 08:18:17;;;;;;;12.40;7.90;;;;;;;8.72;70.12;101622.70;229648;1192;140325;-66
2021/10/08 08:23:23;;;;;;;13.50;6.70;;;;;;;8.97;69.75;101622.81;229234;1192;138985;-66
2021/10/08 08:28:28;;;;;;;10.50;5.20;;;;;;;9.14;68.80;101622.75;229159;1192;139734;-66
2021/10/08 08:33:35;;;;;;;18.30;7.40;;;;;;;9.30;68.19;101625.95;229285;1192;138975;-66
2021/10/08 08:38:40;;;;;;;17.00;4.20;;;;;;;9.48;67.75;101629.15;229400;1192;139547;-66
2021/10/08 08:43:45;;;;;;;10.80;5.30;;;;;;;9.68;67.03;101624.70;229416;1192;139885;-66
2021/10/08 08:48:49;;;;;;;8.20;5.50;;;;;;;9.88;66.50;101624.16;230290;1192;140195;-66
2021/10/08 08:53:57;;;;;;;12.90;4.60;;;;;;;10.12;65.89;101625.38;229006;1192;140862;-66
2021/10/08 08:59:07;;;;;;;16.20;6.10;;;;;;;10.38;65.45;101627.79;229445;1192;141416;-69
2021/10/08 09:04:12;;;;;;;6.70;4.40;;;;;;;10.69;65.20;101621.56;229742;1192;140395;-68
2021/10/08 09:09:20;;;;;;;14.60;5.00;;;;;;;10.96;64.39;101622.80;230790;1192;141195;-72
2021/10/08 09:14:26;;;;;;;8.40;5.80;;;;;;;11.20;63.67;101622.57;230865;1192;139674;-68
2021/10/08 09:19:49;;;;;;;6.60;4.40;;;;;;;11.38;62.47;101624.11;230945;1192;140165;-67
2021/10/08 09:24:54;;;;;;;9.30;3.40;;;;;;;11.57;62.11;101626.55;230633;1192;139829;-67
2021/10/08 09:29:59;;;;;;;13.50;4.80;;;;;;;11.82;62.16;101623.69;230707;1191;138962;-68
2021/10/08 09:35:09;;;;;;;13.70;5.30;;;;;;;12.00;60.79;101619.21;231298;1184;139634;-67
2021/10/08 09:40:30;;;;;;;6.30;5.20;;;;;;;12.15;60.27;101620.25;230769;1190;139845;-67
2021/10/08 09:45:52;;;;;;;9.30;5.20;;;;;;;12.38;60.07;101612.89;229652;1192;139036;-67
2021/10/08 09:51:09;;;;;;;11.40;4.90;;;;;;;12.63;59.30;101608.83;230543;1191;139552;-67
2021/10/08 09:56:29;;;;;;;11.90;5.30;;;;;;;12.80;58.34;101606.36;230520;1191;141654;-66
2021/10/08 10:01:36;;;;;;;9.90;5.30;;;;;;;12.90;57.92;101607.52;229981;1192;140504;-67
2021/10/08 10:06:44;;;;;;;9.90;5.20;;;;;;;13.07;57.68;101611.29;229708;1192;138942;-67
2021/10/08 10:11:49;;;;;;;8.80;5.40;;;;;;;13.25;56.96;101601.55;229843;1190;140171;-67
2021/10/08 10:16:54;;;;;;;15.80;6.10;;;;;;;13.39;56.35;101607.98;229236;1192;139755;-67
2021/10/08 10:22:00;;;;;;;8.00;5.80;;;;;;;13.47;55.72;101608.49;229995;1192;139811;-67
2021/10/08 10:27:05;;;;;;;11.30;4.80;;;;;;;13.70;55.33;101609.16;229599;1192;139995;-67
2021/10/08 10:32:12;;;;;;;19.90;7.20;;;;;;;13.80;54.64;101604.09;229980;1192;142873;-67
2021/10/08 10:37:38;;;;;;;9.70;6.40;;;;;;;13.85;54.26;101602.92;230106;1192;140038;-68
2021/10/08 10:42:43;;;;;;;9.60;5.90;;;;;;;13.98;53.42;101602.57;229069;1191;139069;-67
2021/10/08 10:48:26;;;;;;;17.30;6.50;;;;;;;14.00;52.64;101595.96;230020;1192;138993;-67
2021/10/08 10:53:51;;;;;;;14.20;5.30;;;;;;;14.14;52.75;101599.06;230127;1190;140729;-67
2021/10/08 10:59:33;;;;;;;16.10;6.70;;;;;;;14.29;52.14;101604.50;230019;1190;139062;-67
2021/10/08 11:04:42;;;;;;;9.90;6.20;;;;;;;14.37;51.44;101600.17;230062;1192;139136;-68
2021/10/08 11:09:59;;;;;;;16.20;4.80;;;;;;;14.45;50.97;101601.05;229487;1192;139077;-67
2021/10/08 11:15:20;;;;;;;7.10;4.90;;;;;;;14.53;50.34;101596.08;230208;1190;140470;-67
2021/10/08 11:20:41;;;;;;;18.60;7.90;;;;;;;14.62;50.63;101597.76;229643;1192;139922;-68
2021/10/08 11:25:49;;;;;;;21.60;8.40;;;;;;;14.72;50.09;101598.98;231249;1192;139724;-68
2021/10/08 11:30:53;;;;;;;21.70;7.80;;;;;;;14.70;49.51;101601.02;230860;1192;139547;-68
2021/10/08 11:35:57;;;;;;;21.40;7.80;;;;;;;14.74;49.11;101599.10;230680;1191;139238;-68
2021/10/08 11:41:23;;;;;;;9.10;6.00;;;;;;;14.74;48.91;101597.61;230528;1192;160102;-68
2021/10/08 11:46:40;;;;;;;12.50;8.60;;;;;;;14.78;48.81;101593.09;230411;1191;142295;-68
2021/10/08 11:51:57;;;;;;;11.70;8.60;;;;;;;14.82;48.67;101590.09;229247;1192;161821;-67
2021/10/08 11:57:12;;;;;;;21.20;8.20;;;;;;;14.88;48.45;101584.08;229394;1190;152887;-67
2021/10/08 12:02:24;;;;;;;17.30;8.30;;;;;;;14.85;48.07;101582.27;229818;1190;141112;-67
2021/10/08 12:07:37;;;;;;;10.30;8.30;;;;;;;14.85;48.17;101580.16;230240;1192;141791;-67
2021/10/08 12:12:53;;;;;;;21.90;7.10;;;;;;;14.93;48.13;101583.90;230198;1192;139497;-67
2021/10/08 12:18:04;;;;;;;17.30;8.30;;;;;;;14.99;47.72;101577.80;228879;1192;140154;-68
2021/10/08 12:23:21;;;;;;;10.10;7.50;;;;;;;15.06;47.91;101580.85;229312;1192;140550;-67
2021/10/08 12:28:27;;;;;;;22.70;8.70;;;;;;;15.11;47.49;101583.41;229904;1191;140740;-67
2021/10/08 12:33:33;;;;;;;13.70;9.30;;;;;;;15.17;47.49;101574.81;229870;1192;139295;-67
2021/10/08 12:39:17;;;;;;;23.00;9.40;;;;;;;15.12;47.24;101573.41;229313;1192;139927;-68
2021/10/08 12:44:35;;;;;;;14.90;9.10;;;;;;;14.98;46.87;101575.47;229718;1192;140849;-67
2021/10/08 12:49:46;;;;;;;12.00;8.30;;;;;;;14.89;47.04;101578.02;229331;1193;141017;-68
2021/10/08 12:55:09;;;;;;;11.20;6.80;;;;;;;14.84;46.85;101578.30;230053;1192;141074;-67
2021/10/08 13:00:14;;;;;;;20.80;9.70;;;;;;;14.76;46.69;101573.36;230749;1192;140274;-68
2021/10/08 13:05:19;;;;;;;18.90;9.40;;;;;;;14.68;46.68;101568.96;229607;1192;139547;-67
2021/10/08 13:10:24;;;;;;;16.20;9.20;;;;;;;14.67;46.80;101564.19;231455;1191;139678;-68
2021/10/08 13:15:29;;;;;;;20.20;11.90;;;;;;;14.67;46.57;101562.98;231310;1192;139066;-68
2021/10/08 13:20:34;;;;;;;11.60;10.30;;;;;;;14.68;46.51;101560.62;231389;1192;139491;-68
2021/10/08 13:25:43;;;;;;;16.80;9.40;;;;;;;14.59;46.41;101555.02;230970;1192;140415;-67
2021/10/08 13:30:50;;;;;;;16.50;9.70;;;;;;;14.60;46.32;101551.40;229574;1192;140642;-67
2021/10/08 13:35:56;;;;;;;14.40;9.60;;;;;;;14.58;46.13;101548.06;231231;1191;141033;-69
2021/10/08 13:41:00;;;;;;;;;;;;;;;14.53;45.93;101551.68;229521;1191;139752;-68
2021/10/08 13:46:08;;;;;;;13.50;7.40;;;;;;;14.44;45.83;101549.45;230791;1190;125950;-68
2021/10/08 13:51:16;;;;;;;9.60;8.50;;;;;;;14.41;46.21;101545.95;230522;1191;139205;-67
2021/10/08 13:56:21;;;;;;;19.80;10.70;;;;;;;14.37;46.03;101547.17;230208;1191;138896;-68
2021/10/08 14:01:27;;;;;;;15.90;8.80;;;;;;;14.35;46.24;101550.79;230269;1191;139177;-68
2021/10/08 14:06:53;;;;;;;12.00;9.60;;;;;;;14.22;45.70;101551.17;230531;1191;139241;-68
2021/10/08 14:11:58;;;;;;;9.30;6.10;;;;;;;14.05;46.00;101550.97;229663;1192;139717;-67
2021/10/08 14:17:03;;;;;;;11.20;7.90;;;;;;;13.96;46.16;101551.27;230016;1192;140770;-68
2021/10/08 14:22:08;;;;;;;10.90;7.70;;;;;;;13.88;46.27;101551.53;230139;1192;142102;-68
2021/10/08 14:27:12;;;;;;;19.20;9.80;;;;;;;13.72;45.89;101549.81;229557;1193;142113;-67
2021/10/08 14:32:17;;;;;;;10.10;7.60;;;;;;;13.60;45.76;101544.58;229854;1190;140794;-68
2021/10/08 14:37:22;;;;;;;18.10;7.60;;;;;;;13.44;45.78;101543.71;229639;1192;138831;-69
2021/10/08 14:42:29;;;;;;;9.60;7.70;;;;;;;13.31;45.77;101547.41;230455;1192;139709;-68
2021/10/08 14:47:34;;;;;;;10.60;7.40;;;;;;;13.16;45.83;101547.81;229635;1191;141911;-68
2021/10/08 14:52:41;;;;;;;10.60;5.60;;;;;;;13.06;46.09;101547.86;229464;1192;141300;-68
2021/10/08 14:57:58;;;;;;;21.70;6.60;;;;;;;12.94;45.96;101548.96;230155;1192;140366;-67
2021/10/08 15:03:09;;;;;;;7.70;5.50;;;;;;;12.77;45.98;101551.48;230056;1192;141737;-68
2021/10/08 15:08:15;;;;;;;8.30;6.30;;;;;;;12.62;46.08;101552.52;230425;1192;140929;-68
2021/10/08 15:13:22;;;;;;;7.20;5.90;;;;;;;12.47;46.11;101549.95;230028;1193;141131;-68
2021/10/08 15:18:28;;;;;;;9.20;6.00;;;;;;;12.34;46.41;101553.12;230098;1192;139387;-68
2021/10/08 15:23:33;;;;;;;6.90;5.10;;;;;;;12.18;46.67;101554.61;231184;1192;140218;-68
2021/10/08 15:28:38;;;;;;;8.90;5.00;;;;;;;12.04;47.03;101564.34;230100;1192;139788;-68
2021/10/08 15:33:43;;;;;;;5.70;4.60;;;;;;;11.89;47.04;101575.59;229691;1190;139731;-68
2021/10/08 15:38:47;;;;;;;10.80;6.20;;;;;;;11.72;47.51;101583.54;231211;1190;140775;-69
2021/10/08 15:43:51;;;;;;;15.80;7.50;;;;;;;11.54;47.83;101592.67;230317;1190;140251;-69
2021/10/08 15:48:55;;;;;;;22.20;9.60;;;;;;;11.38;48.33;101598.88;230502;1190;140905;-68
2021/10/08 15:54:00;;;;;;;13.10;8.20;;;;;;;11.19;48.98;101596.28;229571;1190;140580;-68
2021/10/08 15:59:04;;;;;;;15.40;7.40;;;;;;;10.95;49.73;101599.77;230747;1190;139445;-69
2021/10/08 16:04:10;;;;;;;13.60;8.00;;;;;;;10.69;50.34;101598.42;230187;1190;139833;-69
2021/10/08 16:09:15;;;;;;;13.10;7.60;;;;;;;10.45;50.85;101604.80;229669;1190;141106;-68
2021/10/08 16:14:21;;;;;;;20.00;7.40;;;;;;;10.24;51.16;101614.89;230201;1192;139318;-69
2021/10/08 16:19:29;;;;;;;18.20;8.00;;;;;;;10.04;51.78;101615.88;229949;1192;139300;-69
2021/10/08 16:24:35;;;;;;;12.50;7.80;;;;;;;9.84;52.48;101621.48;230054;1191;139080;-67
2021/10/08 16:29:40;;;;;;;11.50;8.40;;;;;;;9.63;52.96;101623.98;230021;1190;139023;-68
2021/10/08 16:34:44;;;;;;;9.30;7.20;;;;;;;9.43;53.25;101633.33;229787;1192;138827;-68
2021/10/08 16:39:50;;;;;;;14.10;8.30;;;;;;;9.25;53.86;101637.45;229476;1192;141377;-69
2021/10/08 16:44:55;;;;;;;12.10;8.10;;;;;;;9.06;54.37;101643.36;229819;1192;140348;-67
2021/10/08 16:50:02;;;;;;;19.80;13.10;;;;;;;8.86;55.17;101648.16;229445;1192;139899;-69
2021/10/08 16:55:08;;;;;;;24.00;12.50;;;;;;;8.67;55.48;101652.27;229414;1192;140166;-67
2021/10/08 17:00:15;;;;;;;24.70;12.70;;;;;;;8.52;55.75;101655.48;230568;1192;140766;-67
2021/10/08 17:05:20;;;;;;;18.60;10.40;;;;;;;8.36;56.16;101658.69;229449;1192;139962;-67
2021/10/08 17:10:26;;;;;;;14.60;8.60;;;;;;;8.19;56.67;101658.54;229596;1192;143605;-67
2021/10/08 17:15:32;;;;;;;17.90;11.10;;;;;;;8.02;57.34;101661.61;229291;1193;139952;-66
2021/10/08 17:20:42;;;;;;;21.80;11.40;;;;;;;7.87;57.44;101664.96;231164;1191;139243;-68
2021/10/08 17:31:10;;;;;;;35.80;14.90;;;;;;;7.61;58.20;101667.26;230845;1192;139277;-67
2021/10/08 17:36:17;;;;;;;24.50;14.00;;;;;;;7.46;58.51;101666.94;231168;1190;138852;-69
2021/10/08 17:41:21;;;;;;;18.20;11.50;;;;;;;7.31;58.84;101671.13;230476;1191;139732;-70
2021/10/08 17:46:25;;;;;;;26.10;14.30;;;;;;;7.16;59.06;101672.31;229728;1190;139908;-68
2021/10/08 17:51:30;;;;;;;26.40;13.90;;;;;;;7.01;59.58;101672.54;229702;1190;139895;-69
2021/10/08 17:56:35;;;;;;;38.70;20.50;;;;;;;6.89;59.96;101676.17;230453;1190;139325;-67
2021/10/08 18:01:40;;;;;;;40.90;21.20;;;;;;;6.81;60.54;101676.64;230193;1192;139806;-68
2021/10/08 18:06:45;;;;;;;37.90;19.30;;;;;;;6.82;60.67;101680.95;230353;1192;141322;-67
2021/10/08 18:11:48;;;;;;;44.30;22.20;;;;;;;6.82;60.92;101683.41;230626;1192;140978;-68
2021/10/08 18:16:52;;;;;;;43.30;22.80;;;;;;;6.80;61.19;101690.55;230541;1190;139970;-67
2021/10/08 18:21:57;;;;;;;49.20;24.70;;;;;;;6.74;61.29;101695.38;229454;1190;139297;-67
2021/10/08 18:27:02;;;;;;;50.00;24.60;;;;;;;6.66;61.53;101701.80;229623;1183;138871;-67
2021/10/08 18:32:06;;;;;;;39.30;22.10;;;;;;;6.56;61.95;101702.66;229765;1192;139546;-67
2021/10/08 18:37:12;;;;;;;27.50;16.50;;;;;;;6.44;62.39;101703.57;230046;1191;139035;-67
2021/10/08 18:42:17;;;;;;;29.00;17.10;;;;;;;6.31;62.56;101705.84;230476;1192;140818;-68
2021/10/08 18:47:24;;;;;;;38.70;18.00;;;;;;;6.20;62.62;101709.25;229813;1183;138957;-67
2021/10/08 18:52:29;;;;;;;50.50;25.20;;;;;;;6.15;62.64;101707.66;229228;1192;140108;-66
2021/10/08 18:57:34;;;;;;;42.60;22.50;;;;;;;6.10;62.82;101709.77;230401;1192;141100;-68
2021/10/08 19:02:39;;;;;;;37.00;20.40;;;;;;;6.02;63.32;101711.81;229697;1190;139169;-67
2021/10/08 19:07:51;;;;;;;33.80;16.70;;;;;;;5.93;63.48;101714.68;229492;1190;139406;-68
2021/10/08 19:12:59;;;;;;;31.40;16.10;;;;;;;5.79;63.72;101717.69;230608;1191;138974;-68
2021/10/08 19:18:19;;;;;;;26.20;17.10;;;;;;;5.67;63.86;101717.77;230119;1191;138891;-71
2021/10/08 19:23:24;;;;;;;29.10;17.40;;;;;;;5.58;64.23;101718.55;230545;1191;139681;-68
2021/10/08 19:28:29;;;;;;;29.70;15.70;;;;;;;5.51;64.47;101727.83;230229;1192;138938;-68
2021/10/08 19:33:34;;;;;;;42.50;22.90;;;;;;;5.50;64.51;101728.28;231356;1191;140294;-70
2021/10/08 19:38:39;;;;;;;45.70;26.30;;;;;;;5.51;64.67;101724.16;231107;1192;140339;-67
2021/10/08 19:43:44;;;;;;;33.20;19.80;;;;;;;5.50;64.54;101724.27;231418;1184;139385;-67
2021/10/08 19:48:53;;;;;;;39.70;19.50;;;;;;;5.50;65.10;101720.63;231000;1192;139620;-67
2021/10/08 19:54:00;;;;;;;36.50;19.20;;;;;;;5.48;65.01;101720.12;231016;1192;139269;-67
2021/10/08 19:59:04;;;;;;;30.50;18.40;;;;;;;5.47;65.14;101722.52;229460;1192;159460;-65
2021/10/08 20:04:10;;;;;;;28.20;17.40;;;;;;;5.43;65.05;101721.96;230439;1191;140124;-67
2021/10/08 20:14:40;;;;;;;42.40;22.70;;;;;;;5.47;65.46;101724.94;229761;1192;140128;-67
2021/10/08 20:19:46;;;;;;;42.40;23.20;;;;;;;5.44;65.63;101724.38;229882;1192;139563;-65
2021/10/08 20:24:51;;;;;;;40.00;20.10;;;;;;;5.41;65.54;101719.33;229973;1192;140020;-65
2021/10/08 20:29:57;;;;;;;33.00;18.00;;;;;;;5.35;65.86;101718.05;228966;1192;139153;-65
2021/10/08 20:35:02;;;;;;;35.60;17.90;;;;;;;5.29;65.85;101715.66;229384;1192;140920;-67
2021/10/08 20:40:09;;;;;;;34.10;17.90;;;;;;;5.21;65.68;101713.60;229662;1192;141328;-66
2021/10/08 20:45:15;;;;;;;30.70;16.10;;;;;;;5.15;65.90;101714.21;229133;1192;140778;-65
2021/10/08 20:50:20;;;;;;;35.50;19.70;;;;;;;5.15;65.97;101711.06;230019;1192;140671;-66
2021/10/08 20:55:24;;;;;;;21.90;11.90;;;;;;;5.03;66.07;101712.56;230002;1191;140326;-67
2021/10/08 21:00:29;;;;;;;28.00;15.60;;;;;;;4.90;66.24;101708.69;230009;1192;139823;-67
2021/10/08 21:05:34;;;;;;;76.90;23.90;;;;;;;4.83;66.70;101702.92;230843;1192;139771;-67
2021/10/08 21:10:41;;;;;;;317.40;106.60;;;;;;;4.75;66.91;101708.50;230027;1192;162097;-66
2021/10/08 21:15:47;;;;;;;196.10;71.20;;;;;;;4.66;66.91;101709.98;230087;1192;141032;-68
2021/10/08 21:20:53;;;;;;;178.10;53.30;;;;;;;4.60;67.10;101715.69;229940;1192;140515;-66
2021/10/08 21:25:59;;;;;;;60.00;27.20;;;;;;;4.61;67.10;101720.58;230949;1191;140327;-67
2021/10/08 21:31:02;;;;;;;60.50;23.10;;;;;;;4.61;67.11;101723.36;230728;1192;222980;-67
2021/10/08 21:36:08;;;;;;;38.60;20.00;;;;;;;4.60;67.30;101721.02;231038;1192;139623;-66
2021/10/08 21:41:26;;;;;;;29.70;17.30;;;;;;;4.51;67.44;101723.23;231155;1191;140066;-67
2021/10/08 21:46:30;;;;;;;28.90;13.90;;;;;;;4.41;67.39;101720.36;230837;1192;139223;-65
2021/10/08 21:51:34;;;;;;;27.30;13.10;;;;;;;4.30;67.55;101714.39;230622;1192;139526;-66
2021/10/08 21:56:38;;;;;;;27.10;17.10;;;;;;;4.28;67.62;101717.52;229898;1192;141762;-67
2021/10/08 22:01:44;;;;;;;38.30;17.90;;;;;;;4.18;67.69;101712.91;230485;1192;141150;-65
2021/10/08 22:06:49;;;;;;;28.10;16.00;;;;;;;4.16;67.98;101712.94;230170;1192;158528;-66
2021/10/08 22:11:54;;;;;;;17.90;11.80;;;;;;;4.09;68.30;101714.60;230460;1192;140017;-66
2021/10/08 22:16:58;;;;;;;19.40;11.40;;;;;;;3.90;68.11;101718.19;230126;1192;140161;-66
2021/10/08 22:22:04;;;;;;;30.20;12.20;;;;;;;3.73;68.36;101715.13;230482;1192;139051;-67
2021/10/08 22:37:53;;;;;;;18.10;13.80;;;;;;;3.61;69.09;101720.53;229665;1192;139375;-64
2021/10/08 22:42:58;;;;;;;19.10;10.80;;;;;;;3.50;69.22;101717.79;229360;1192;139966;-66
2021/10/08 22:48:04;;;;;;;18.80;10.60;;;;;;;3.30;69.35;101713.34;229445;1192;141095;-65
2021/10/08 22:53:07;;;;;;;27.60;13.50;;;;;;;3.14;69.46;101706.91;229961;1192;139053;-66
2021/10/08 22:58:10;;;;;;;24.40;11.50;;;;;;;3.09;69.72;101706.16;229283;1192;140234;-65
2021/10/08 23:03:16;;;;;;;26.30;14.40;;;;;;;3.06;70.06;101702.15;229168;1192;139805;-66
2021/10/08 23:08:26;;;;;;;26.40;14.40;;;;;;;3.03;70.25;101702.77;228868;1192;139901;-66
2021/10/08 23:18:37;;;;;;;28.20;13.80;;;;;;;2.96;70.65;101704.87;230074;1192;141248;-68
2021/10/08 23:23:41;;;;;;;23.90;11.60;;;;;;;2.88;70.66;101705.18;229990;1192;139084;-69
2021/10/08 23:28:45;;;;;;;23.80;12.00;;;;;;;2.81;70.74;101706.19;229770;1192;139222;-67
2021/10/08 23:33:51;;;;;;;16.90;11.80;;;;;;;2.79;70.72;101708.26;230245;1192;140174;-69